»·PEaware :: N118BK CYVR-KLMT

N118BK :: CYVR-KLMT

FLIGHT INFORMATION

Flight Status: Arrived
Operator: Privately registered:
United States
More flights under this callsign
Pilot: Brandon K. (3556)
Aircraft: Unknown
(EPIC)
More flights by this aircraft type
Origin: CYVR Vancouver Intl
Canada
Destination: KLMT Klamath Falls Intl
United States
More flights between these airports :: More routes between these airports
Route: CVV V165 UBG EUG V452 LMT
File this flight plan on PilotEdge
Remarks:
Altitude:
(Current/Filed)
15,500ft
Speed:
(Current/Filed)
270kts
Departed: 07-Dec-17 03:09 PM
Arrived: 07-Dec-17 04:55 PM
Distance/Time
Traveled:
426nm/1:46
Distance/Time
To Go:
Arrived

Flight Plot

Page will automatically refresh every two minutes.

Flight plan parsing failed; only flown route is shown


Map Options




Map Legend


Flown Route
Filed Route
Departure Airport
Arrival Airport
Navaid (VOR, NDB)
Fix

Horizontal Profiles

Position Reports

Time Latitude Longitude Heading Altitude Ground
Speed
07-Dec-17 15:03 49.181044 -123.167313 91 10ft 0kts
07-Dec-17 15:04 49.181044 -123.167313 91 10ft 0kts
07-Dec-17 15:05 49.181044 -123.167313 91 10ft 0kts
07-Dec-17 15:06 49.181044 -123.167313 91 10ft 0kts
07-Dec-17 15:07 49.181044 -123.167313 91 10ft 0kts
07-Dec-17 15:08 49.181044 -123.167312 91 10ft 0kts
07-Dec-17 15:09 49.181044 -123.167312 91 10ft 0kts
07-Dec-17 15:10 49.181044 -123.167312 91 10ft 0kts
07-Dec-17 15:11 49.181621 -123.167117 358 10ft 0kts
07-Dec-17 15:12 49.182660 -123.162470 1 10ft 7kts
07-Dec-17 15:13 49.184925 -123.162780 280 10ft 1kts
07-Dec-17 15:14 49.189393 -123.201624 279 285ft 188kts
07-Dec-17 15:15 49.182539 -123.280849 201 1100ft 213kts
07-Dec-17 15:16 49.139878 -123.237260 132 1401ft 185kts
07-Dec-17 15:17 49.103532 -123.175867 131 2616ft 183kts
07-Dec-17 15:18 49.062165 -123.128742 153 4724ft 189kts
07-Dec-17 15:19 49.013440 -123.097361 160 6626ft 194kts
07-Dec-17 15:20 48.961504 -123.069878 163 8187ft 205kts
07-Dec-17 15:21 48.907434 -123.042978 165 9738ft 203kts
07-Dec-17 15:22 48.856701 -123.018333 164 11069ft 200kts
07-Dec-17 15:23 48.803748 -122.992595 163 12167ft 205kts
07-Dec-17 15:24 48.749666 -122.966335 163 13163ft 206kts
07-Dec-17 15:25 48.694661 -122.939715 164 14037ft 210kts
07-Dec-17 15:26 48.638751 -122.912733 164 14832ft 213kts
07-Dec-17 15:27 48.582236 -122.885527 164 15493ft 218kts
07-Dec-17 15:28 48.522742 -122.856975 164 15524ft 237kts
07-Dec-17 15:29 48.459054 -122.826457 164 15523ft 244kts
07-Dec-17 15:30 48.394367 -122.795559 164 15534ft 245kts
07-Dec-17 15:31 48.329521 -122.764671 163 15539ft 247kts
07-Dec-17 15:32 48.261015 -122.732091 163 15555ft 284kts
07-Dec-17 15:33 48.179355 -122.734362 185 15540ft 308kts
07-Dec-17 15:34 48.094951 -122.745729 185 15521ft 312kts
07-Dec-17 15:35 48.011744 -122.757458 185 15521ft 313kts
07-Dec-17 15:36 47.929534 -122.769067 185 15521ft 313kts
07-Dec-17 15:37 47.859757 -122.778889 185 15523ft 313kts
07-Dec-17 15:38 47.775225 -122.790758 185 15510ft 314kts
07-Dec-17 15:39 47.690293 -122.802648 185 15495ft 314kts
07-Dec-17 15:40 47.604902 -122.814557 185 15495ft 314kts
07-Dec-17 15:41 47.519387 -122.826447 185 15495ft 314kts
07-Dec-17 15:42 47.435116 -122.838125 185 15495ft 314kts
07-Dec-17 15:43 47.352158 -122.849601 185 15494ft 314kts
07-Dec-17 15:44 47.268206 -122.861176 185 15494ft 314kts
07-Dec-17 15:45 47.186231 -122.872433 185 15489ft 314kts
07-Dec-17 15:46 47.111495 -122.882663 185 15468ft 313kts
07-Dec-17 15:47 47.027396 -122.894140 185 15467ft 313kts
07-Dec-17 15:48 46.943940 -122.913280 194 15490ft 311kts
07-Dec-17 15:49 46.872487 -122.940563 194 15495ft 311kts
07-Dec-17 15:50 46.829132 -122.957382 195 15495ft 311kts
07-Dec-17 15:51 46.749533 -122.988291 195 15495ft 311kts
07-Dec-17 15:52 46.668856 -123.019558 195 15495ft 311kts
07-Dec-17 15:53 46.586599 -123.051336 194 15495ft 311kts
07-Dec-17 15:54 46.504892 -123.082799 194 15494ft 311kts
07-Dec-17 15:55 46.422381 -123.109867 178 15502ft 311kts
07-Dec-17 15:56 46.341319 -123.102448 176 15494ft 312kts
07-Dec-17 15:57 46.258673 -123.092214 175 15494ft 312kts
07-Dec-17 15:58 46.173040 -123.081301 175 15493ft 312kts
07-Dec-17 15:59 46.087290 -123.070365 175 15493ft 312kts
07-Dec-17 16:00 46.001276 -123.059427 175 15493ft 312kts
07-Dec-17 16:01 45.915188 -123.048507 175 15493ft 312kts
07-Dec-17 16:02 45.835859 -123.038466 175 15496ft 312kts
07-Dec-17 16:03 45.755868 -123.028382 175 15495ft 312kts
07-Dec-17 16:04 45.676102 -123.018354 175 15495ft 312kts
07-Dec-17 16:05 45.595038 -123.008195 175 15495ft 312kts
07-Dec-17 16:06 45.512512 -122.997882 175 15495ft 312kts
07-Dec-17 16:07 45.429515 -122.987640 174 15494ft 311kts
07-Dec-17 16:08 45.347090 -122.981079 184 15496ft 312kts
07-Dec-17 16:10 45.262897 -122.996544 186 15494ft 313kts
07-Dec-17 16:11 45.179559 -123.013200 186 15494ft 313kts
07-Dec-17 16:12 45.094107 -123.030386 186 15493ft 313kts
07-Dec-17 16:13 45.009945 -123.047276 186 15493ft 313kts
07-Dec-17 16:14 44.925745 -123.064063 187 15467ft 312kts
07-Dec-17 16:15 44.845579 -123.080142 186 15469ft 312kts
07-Dec-17 16:16 44.761704 -123.096815 186 15468ft 313kts
07-Dec-17 16:17 44.683647 -123.112297 186 15468ft 313kts
07-Dec-17 16:18 44.600587 -123.128735 186 15468ft 313kts
07-Dec-17 16:19 44.515358 -123.145546 186 15494ft 312kts
07-Dec-17 16:20 44.430295 -123.162278 186 15494ft 312kts
07-Dec-17 16:21 44.346098 -123.178793 186 15494ft 312kts
07-Dec-17 16:22 44.264158 -123.194816 186 15494ft 311kts
07-Dec-17 16:23 44.184924 -123.210280 186 15494ft 311kts
07-Dec-17 16:24 44.105860 -123.204783 155 15498ft 309kts
07-Dec-17 16:25 44.030994 -123.151195 151 15493ft 309kts
07-Dec-17 16:26 43.956378 -123.093257 150 15493ft 309kts
07-Dec-17 16:27 43.886154 -123.038357 150 15495ft 309kts
07-Dec-17 16:28 43.817952 -122.985125 150 15496ft 309kts
07-Dec-17 16:29 43.744497 -122.927893 151 15495ft 310kts
07-Dec-17 16:29 43.683272 -122.880419 150 15495ft 310kts
07-Dec-17 16:30 43.609710 -122.823432 150 15495ft 309kts
07-Dec-17 16:32 43.523017 -122.756491 150 15468ft 309kts
07-Dec-17 16:32 43.460952 -122.708708 150 15467ft 308kts
07-Dec-17 16:33 43.386580 -122.651599 150 15467ft 308kts
07-Dec-17 16:34 43.312206 -122.594649 150 15467ft 308kts
07-Dec-17 16:36 43.224882 -122.528008 150 15466ft 308kts
07-Dec-17 16:36 43.162508 -122.480519 150 15466ft 308kts
07-Dec-17 16:37 43.088045 -122.423985 150 15466ft 308kts
07-Dec-17 16:38 43.013703 -122.367705 150 15465ft 308kts
07-Dec-17 16:39 42.939813 -122.311929 151 15439ft 309kts
07-Dec-17 16:40 42.868626 -122.258333 151 15442ft 311kts
07-Dec-17 16:41 42.793179 -122.201687 151 15442ft 312kts
07-Dec-17 16:42 42.717637 -122.145127 151 15560ft 311kts
07-Dec-17 16:43 42.642327 -122.088891 151 15576ft 311kts
07-Dec-17 16:44 42.566856 -122.032696 151 15576ft 311kts
07-Dec-17 16:45 42.488521 -121.985432 161 15575ft 311kts
07-Dec-17 16:46 42.406336 -121.951129 162 15575ft 311kts
07-Dec-17 16:47 42.324615 -121.917795 162 14691ft 305kts
07-Dec-17 16:48 42.244794 -121.885357 162 13696ft 303kts
07-Dec-17 16:49 42.164799 -121.852930 162 12695ft 303kts
07-Dec-17 16:50 42.084528 -121.820448 162 11735ft 304kts
07-Dec-17 16:51 42.003114 -121.787688 161 10916ft 308kts
07-Dec-17 16:52 41.923997 -121.755862 161 9964ft 291kts
07-Dec-17 16:53 41.882602 -121.689219 94 9095ft 257kts
07-Dec-17 16:54 41.894736 -121.598335 35 9076ft 253kts
07-Dec-17 16:55 41.957228 -121.624111 332 8079ft 256kts
07-Dec-17 16:56 42.020539 -121.660892 338 6724ft 245kts
07-Dec-17 16:57 42.079504 -121.692378 338 5466ft 186kts
07-Dec-17 16:58 42.113181 -121.710384 338 4744ft 93kts
07-Dec-17 16:59 42.136600 -121.722702 335 4271ft 90kts
07-Dec-17 17:00 42.153674 -121.731961 338 4092ft 36kts
07-Dec-17 17:01 42.157636 -121.735497 269 4092ft 0kts
07-Dec-17 17:02 42.157652 -121.737812 270 4092ft 18kts
07-Dec-17 17:03 42.159288 -121.741964 359 4092ft 14kts
07-Dec-17 17:04 42.160161 -121.743053 269 4092ft 0kts
07-Dec-17 17:05 42.160162 -121.743053 269 4092ft 0kts

Navigation Log

Ident Type
Flight plan parsing failed, navigation log unavailable